FR-0188 weather

Centre Hospitalier Heliport
Briancon, Provence-Alpes-Côte-d'Azur, France

Public forecast

Using degrees Celsius for public forecast. Weather courtesy of forecast.io.

METAR (pilot weather report)

Closest report is Torino-Aeritalia Airport, 42.6 nm (78.9 km) ENE. Retrieved 2019/09/19 14:50 UTC (46 minutes ago):

LIMA 191450Z 03002KT 320V110 8000 BKN010 18/14 Q1020

TAF (pilot weather forecast)

Closest forecast is Turin Airport, 46.6 nm (86.3 km) ENE. Retrieved 2019/09/19 12:00 UTC (4 hours ago):

TAF LIMF 191100Z 1912/2012 VRB05KT 7000 SCT015 SCT050